createdAt,value
2023-03-26T00:00:21.060Z,947.29
2023-03-26T00:02:47.418Z,947.24
2023-03-26T00:05:14.039Z,947.23
2023-03-26T00:07:40.418Z,947.31
2023-03-26T00:10:06.741Z,947.31
2023-03-26T00:12:33.100Z,947.32
2023-03-26T00:14:59.406Z,947.35
2023-03-26T00:17:25.873Z,947.24
2023-03-26T00:19:52.199Z,947.23
2023-03-26T00:22:18.542Z,947.18
2023-03-26T00:24:44.877Z,947.19
2023-03-26T00:27:11.244Z,947.09
2023-03-26T00:29:37.584Z,947.03
2023-03-26T00:32:04.379Z,947.08
2023-03-26T00:34:30.749Z,947.09
2023-03-26T00:36:57.155Z,947.00
2023-03-26T00:39:23.586Z,947.06
2023-03-26T00:41:49.936Z,947.10
2023-03-26T00:44:16.270Z,947.16
2023-03-26T00:46:42.710Z,947.13
2023-03-26T00:49:09.001Z,947.13
2023-03-26T00:51:35.364Z,947.14
2023-03-26T00:54:01.755Z,947.11
2023-03-26T00:56:28.120Z,947.16
2023-03-26T00:58:54.505Z,947.14
2023-03-26T01:01:20.915Z,947.06
2023-03-26T01:04:01.242Z,947.06
2023-03-26T01:06:13.614Z,947.08
2023-03-26T01:08:39.983Z,947.11
2023-03-26T01:11:06.387Z,947.13
2023-03-26T01:13:32.779Z,947.17
2023-03-26T01:15:59.226Z,947.16
2023-03-26T01:18:25.483Z,947.14
2023-03-26T01:20:51.874Z,947.20
2023-03-26T01:23:18.277Z,947.22
2023-03-26T01:25:44.658Z,947.24
2023-03-26T01:28:10.979Z,947.22
2023-03-26T01:30:37.351Z,947.31
2023-03-26T01:33:03.808Z,947.38
2023-03-26T01:35:30.116Z,947.35
2023-03-26T01:37:56.490Z,947.37
2023-03-26T01:40:22.860Z,947.37
2023-03-26T01:42:49.291Z,947.35
2023-03-26T01:45:15.647Z,947.39
2023-03-26T01:47:42.087Z,947.46
2023-03-26T01:50:08.395Z,947.46
2023-03-26T01:52:34.730Z,947.47
2023-03-26T01:55:01.101Z,947.51
2023-03-26T01:57:27.491Z,947.53
2023-03-26T01:59:53.841Z,947.43
2023-03-26T02:02:20.310Z,947.47
2023-03-26T02:04:46.517Z,947.54
2023-03-26T02:07:12.925Z,947.44
2023-03-26T02:09:39.257Z,947.39
2023-03-26T02:12:05.648Z,947.43
2023-03-26T02:14:32.056Z,947.49
2023-03-26T02:16:58.425Z,947.54
2023-03-26T02:19:24.830Z,947.46
2023-03-26T02:21:51.199Z,947.52
2023-03-26T02:24:17.548Z,947.45
2023-03-26T02:26:43.888Z,947.46
2023-03-26T02:29:10.208Z,947.37
2023-03-26T02:31:36.663Z,947.35
2023-03-26T02:34:02.964Z,947.42
2023-03-26T02:36:29.509Z,947.49
2023-03-26T02:38:55.729Z,947.56
2023-03-26T02:41:22.080Z,947.50
2023-03-26T02:43:48.453Z,947.53
2023-03-26T02:46:14.871Z,947.52
2023-03-26T02:48:41.197Z,947.52
2023-03-26T02:51:07.547Z,947.60
2023-03-26T02:53:33.929Z,947.61
2023-03-26T02:56:00.337Z,947.65
2023-03-26T02:58:26.686Z,947.71
2023-03-26T03:00:53.078Z,947.68
2023-03-26T03:03:19.439Z,947.71
2023-03-26T03:05:45.746Z,947.72
2023-03-26T03:08:12.111Z,947.85
2023-03-26T03:10:38.508Z,947.82
2023-03-26T03:13:04.824Z,947.78
2023-03-26T03:15:31.182Z,947.79
2023-03-26T03:17:57.580Z,947.81
2023-03-26T03:20:23.987Z,947.80
2023-03-26T03:22:50.298Z,947.86
2023-03-26T03:25:16.709Z,947.91
2023-03-26T03:27:43.120Z,947.82
2023-03-26T03:30:09.413Z,947.84
2023-03-26T03:32:35.751Z,947.94
2023-03-26T03:35:02.133Z,947.95
2023-03-26T03:37:28.490Z,947.98
2023-03-26T03:39:54.845Z,947.97
2023-03-26T03:42:21.160Z,947.92
2023-03-26T03:44:47.620Z,947.89
2023-03-26T03:47:13.982Z,947.93
2023-03-26T03:49:40.287Z,947.93
2023-03-26T03:52:06.688Z,947.98
2023-03-26T03:54:33.028Z,947.93
2023-03-26T03:56:59.410Z,947.99
2023-03-26T03:59:25.743Z,947.96
2023-03-26T04:01:52.103Z,947.91
2023-03-26T04:04:18.470Z,947.99
2023-03-26T04:06:44.856Z,948.02
2023-03-26T04:09:11.240Z,948.00
2023-03-26T04:11:37.592Z,948.01
2023-03-26T04:14:03.988Z,948.14
2023-03-26T04:16:30.454Z,948.19
2023-03-26T04:18:56.759Z,948.31
2023-03-26T04:21:23.104Z,948.40
2023-03-26T04:23:49.530Z,948.46
2023-03-26T04:26:15.987Z,948.58
2023-03-26T04:28:42.373Z,948.68
2023-03-26T04:31:08.619Z,948.73
2023-03-26T04:33:34.973Z,948.83
2023-03-26T04:36:01.289Z,948.84
2023-03-26T04:38:27.620Z,948.83
2023-03-26T04:40:53.981Z,948.86
2023-03-26T04:43:20.383Z,948.98
2023-03-26T04:45:46.710Z,948.97
2023-03-26T04:48:13.130Z,949.06
2023-03-26T04:50:39.488Z,949.01
2023-03-26T04:53:05.880Z,948.94
2023-03-26T04:55:32.262Z,949.00
2023-03-26T04:57:58.599Z,948.99
2023-03-26T05:00:24.981Z,949.00
2023-03-26T05:02:51.364Z,948.93
2023-03-26T05:05:17.686Z,948.96
2023-03-26T05:07:44.026Z,948.96
2023-03-26T05:10:10.423Z,948.92
2023-03-26T05:12:36.809Z,949.02
2023-03-26T05:15:03.138Z,949.12
2023-03-26T05:17:29.797Z,949.10
2023-03-26T05:19:56.160Z,949.04
2023-03-26T05:22:22.536Z,949.02
2023-03-26T05:24:48.876Z,949.07
2023-03-26T05:27:15.280Z,949.10
2023-03-26T05:29:41.679Z,949.08
2023-03-26T05:32:08.046Z,949.19
2023-03-26T05:34:34.430Z,949.01
2023-03-26T05:37:00.848Z,949.09
2023-03-26T05:39:27.170Z,949.06
2023-03-26T05:41:53.586Z,949.09
2023-03-26T05:44:19.951Z,949.03
2023-03-26T05:46:46.357Z,949.18
2023-03-26T05:49:12.692Z,949.10
2023-03-26T05:51:39.096Z,949.14
2023-03-26T05:54:05.506Z,949.27
2023-03-26T05:56:31.827Z,949.22
2023-03-26T05:58:58.122Z,949.25
2023-03-26T06:01:24.509Z,949.16
2023-03-26T06:03:51.062Z,949.12
2023-03-26T06:06:17.374Z,949.08
2023-03-26T06:08:43.756Z,949.11
2023-03-26T06:11:10.139Z,949.16
2023-03-26T06:13:36.731Z,949.07
2023-03-26T06:16:03.197Z,949.17
2023-03-26T06:18:29.430Z,949.21
2023-03-26T06:20:56.031Z,949.12
2023-03-26T06:23:22.239Z,949.22
2023-03-26T06:25:48.699Z,949.21
2023-03-26T06:28:15.294Z,949.13
2023-03-26T06:30:41.670Z,949.21
2023-03-26T06:33:07.997Z,949.29
2023-03-26T06:35:34.391Z,949.29
2023-03-26T06:38:00.722Z,949.28
2023-03-26T06:40:27.169Z,949.25
2023-03-26T06:43:07.990Z,949.23
2023-03-26T06:45:19.864Z,949.29
2023-03-26T06:47:46.313Z,949.30
2023-03-26T06:50:12.660Z,949.28
2023-03-26T06:52:39.016Z,949.33
2023-03-26T06:55:05.405Z,949.30
2023-03-26T06:57:31.757Z,949.31
2023-03-26T06:59:58.124Z,949.46
2023-03-26T07:02:24.585Z,949.45
2023-03-26T07:04:50.905Z,949.51
2023-03-26T07:07:17.221Z,949.48
2023-03-26T07:09:43.644Z,949.47
2023-03-26T07:12:10.014Z,949.46
2023-03-26T07:14:36.394Z,949.41
2023-03-26T07:17:02.726Z,949.37
2023-03-26T07:19:29.090Z,949.47
2023-03-26T07:21:55.589Z,949.37
2023-03-26T07:24:22.035Z,949.35
2023-03-26T07:26:48.411Z,949.32
2023-03-26T07:29:14.765Z,949.33
2023-03-26T07:31:41.220Z,949.26
2023-03-26T07:34:07.504Z,949.25
2023-03-26T07:36:34.021Z,949.18
2023-03-26T07:39:00.418Z,949.16
2023-03-26T07:41:26.861Z,949.20
2023-03-26T07:43:53.223Z,949.24
2023-03-26T07:46:19.624Z,949.34
2023-03-26T07:48:45.940Z,949.25
2023-03-26T07:51:12.280Z,949.24
2023-03-26T07:53:38.753Z,949.26
2023-03-26T07:56:05.212Z,949.24
2023-03-26T07:58:31.554Z,949.22
2023-03-26T08:00:57.844Z,949.19
2023-03-26T08:03:24.308Z,949.14
2023-03-26T08:05:50.688Z,949.25
2023-03-26T08:08:16.996Z,949.24
2023-03-26T08:10:43.360Z,949.15
2023-03-26T08:13:09.896Z,949.09
2023-03-26T08:15:36.505Z,949.09
2023-03-26T08:18:02.775Z,949.07
2023-03-26T08:20:29.078Z,949.17
2023-03-26T08:22:55.465Z,949.15
2023-03-26T08:25:22.122Z,949.17
2023-03-26T08:27:48.495Z,949.20
2023-03-26T08:30:14.827Z,949.17
2023-03-26T08:32:41.344Z,949.19
2023-03-26T08:35:07.692Z,949.20
2023-03-26T08:37:34.075Z,949.20
2023-03-26T08:40:00.478Z,949.25
2023-03-26T08:42:27.944Z,949.20
2023-03-26T08:44:54.281Z,949.17
2023-03-26T08:47:21.708Z,949.22
2023-03-26T08:49:48.052Z,949.15
2023-03-26T08:52:14.399Z,949.11
2023-03-26T08:54:40.779Z,949.12
2023-03-26T08:57:07.275Z,949.13
2023-03-26T08:59:33.546Z,949.11
2023-03-26T09:01:59.964Z,949.13
2023-03-26T09:04:26.274Z,949.07
2023-03-26T09:06:52.714Z,949.15
2023-03-26T09:09:19.504Z,949.15
2023-03-26T09:11:45.444Z,949.15
2023-03-26T09:14:11.756Z,949.05
2023-03-26T09:16:40.273Z,949.15
2023-03-26T09:19:06.647Z,949.02
2023-03-26T09:21:32.985Z,949.00
2023-03-26T09:23:59.352Z,949.05
2023-03-26T09:26:26.776Z,948.92
2023-03-26T09:28:53.133Z,948.85
2023-03-26T09:31:19.544Z,948.92
2023-03-26T09:33:45.891Z,948.83
2023-03-26T09:36:12.269Z,948.95
2023-03-26T09:38:38.625Z,948.86
2023-03-26T09:41:07.465Z,948.83
2023-03-26T09:43:35.028Z,948.78
2023-03-26T09:46:01.460Z,948.76
2023-03-26T09:48:30.053Z,948.69
2023-03-26T09:50:58.110Z,948.78
2023-03-26T09:53:24.088Z,948.70
2023-03-26T09:55:52.764Z,948.63
2023-03-26T09:58:21.464Z,948.59
2023-03-26T10:00:47.889Z,948.55
2023-03-26T10:03:15.947Z,948.53
2023-03-26T10:05:42.358Z,948.49
2023-03-26T10:08:08.622Z,948.39
2023-03-26T10:10:34.993Z,948.40
2023-03-26T10:13:11.981Z,948.43
2023-03-26T10:15:27.754Z,948.32
2023-03-26T10:17:54.153Z,948.43
2023-03-26T10:20:20.510Z,948.28
2023-03-26T10:22:47.196Z,948.24
2023-03-26T10:25:13.578Z,948.26
2023-03-26T10:27:39.907Z,948.19
2023-03-26T10:30:06.284Z,948.14
2023-03-26T10:32:32.730Z,948.07
2023-03-26T10:34:59.055Z,947.88
2023-03-26T10:37:25.474Z,948.03
2023-03-26T10:39:51.817Z,947.95
2023-03-26T10:42:22.876Z,947.97
2023-03-26T10:44:50.335Z,947.99
2023-03-26T10:47:16.911Z,947.92
2023-03-26T10:49:43.264Z,947.84
2023-03-26T10:52:09.599Z,947.83
2023-03-26T10:54:36.028Z,947.95
2023-03-26T10:57:02.384Z,947.82
2023-03-26T10:59:28.701Z,947.74
2023-03-26T11:01:55.163Z,947.71
2023-03-26T11:04:21.401Z,947.70
2023-03-26T11:06:48.883Z,947.70
2023-03-26T11:09:15.566Z,947.72
2023-03-26T11:11:41.921Z,947.59
2023-03-26T11:14:09.558Z,947.64
2023-03-26T11:16:35.884Z,947.68
2023-03-26T11:19:03.850Z,947.62
2023-03-26T11:21:28.615Z,947.55
2023-03-26T11:24:05.022Z,947.51
2023-03-26T11:26:21.400Z,947.57
2023-03-26T11:29:03.856Z,947.49
2023-03-26T11:31:14.192Z,947.45
2023-03-26T11:33:45.553Z,947.43
2023-03-26T11:36:07.197Z,947.43
2023-03-26T11:38:33.497Z,947.41
2023-03-26T11:40:59.927Z,947.42
2023-03-26T11:43:27.121Z,947.31
2023-03-26T11:45:53.450Z,947.19
2023-03-26T11:48:19.847Z,947.12
2023-03-26T11:50:46.230Z,947.22
2023-03-26T11:53:12.633Z,946.99
2023-03-26T11:55:38.995Z,946.92
2023-03-26T11:58:05.412Z,946.83
2023-03-26T12:00:34.482Z,946.92
2023-03-26T12:03:00.921Z,946.81
2023-03-26T12:05:27.311Z,946.75
2023-03-26T12:07:53.668Z,946.71
2023-03-26T12:10:22.784Z,946.70
2023-03-26T12:12:49.135Z,946.68
2023-03-26T12:15:15.804Z,946.72
2023-03-26T12:17:43.127Z,946.57
2023-03-26T12:20:09.425Z,946.63
2023-03-26T12:22:35.815Z,946.56
2023-03-26T12:25:02.227Z,946.44
2023-03-26T12:27:34.780Z,946.45
2023-03-26T12:30:11.830Z,946.34
2023-03-26T12:32:45.875Z,946.39
2023-03-26T12:35:05.954Z,946.36
2023-03-26T12:37:33.543Z,946.31
2023-03-26T12:40:07.209Z,946.22
2023-03-26T12:44:51.383Z,946.16
2023-03-26T12:44:59.985Z,946.17
2023-03-26T12:48:00.342Z,946.17
2023-03-26T12:49:49.249Z,946.16
2023-03-26T12:52:24.277Z,946.06
2023-03-26T12:54:50.619Z,946.14
2023-03-26T12:57:17.040Z,946.12
2023-03-26T12:59:43.479Z,946.07
2023-03-26T13:02:10.175Z,945.98
2023-03-26T13:04:36.632Z,946.02
2023-03-26T13:07:05.166Z,946.03
2023-03-26T13:09:31.517Z,946.02
2023-03-26T13:11:57.875Z,946.03
2023-03-26T13:14:24.302Z,945.97
2023-03-26T13:16:51.040Z,945.91
2023-03-26T13:19:17.400Z,945.92
2023-03-26T13:21:45.888Z,945.91
2023-03-26T13:24:10.610Z,945.87
2023-03-26T13:26:37.029Z,945.86
2023-03-26T13:29:03.441Z,945.92
2023-03-26T13:31:29.910Z,945.80
2023-03-26T13:33:56.326Z,945.80
2023-03-26T13:36:24.189Z,945.86
2023-03-26T13:38:59.253Z,945.78
2023-03-26T13:41:15.429Z,945.81
2023-03-26T13:43:41.822Z,945.78
2023-03-26T13:46:08.225Z,945.79
2023-03-26T13:48:34.522Z,945.71
2023-03-26T13:51:00.976Z,945.64
2023-03-26T13:53:27.370Z,945.66
2023-03-26T13:55:53.723Z,945.71
2023-03-26T13:58:20.092Z,945.63
2023-03-26T14:00:46.448Z,945.63
2023-03-26T14:03:12.840Z,945.63
2023-03-26T14:05:39.229Z,945.64
2023-03-26T14:08:05.627Z,945.60
2023-03-26T14:10:31.910Z,945.58
2023-03-26T14:12:58.319Z,945.53
2023-03-26T14:15:24.685Z,945.44
2023-03-26T14:17:51.036Z,945.39
2023-03-26T14:20:17.474Z,945.44
2023-03-26T14:22:43.856Z,945.41
2023-03-26T14:25:10.213Z,945.40
2023-03-26T14:27:36.611Z,945.37
2023-03-26T14:30:03.076Z,945.45
2023-03-26T14:32:29.410Z,945.40
2023-03-26T14:34:55.712Z,945.32
2023-03-26T14:37:27.313Z,945.29
2023-03-26T14:39:48.576Z,945.41
2023-03-26T14:42:14.957Z,945.34
2023-03-26T14:44:48.159Z,945.39
2023-03-26T14:47:07.804Z,945.28
2023-03-26T14:49:34.109Z,945.25
2023-03-26T14:52:00.506Z,945.20
2023-03-26T14:54:26.833Z,945.24
2023-03-26T14:56:53.272Z,945.27
2023-03-26T14:59:19.556Z,945.29
2023-03-26T15:01:45.937Z,945.32
2023-03-26T15:04:12.284Z,945.28
2023-03-26T15:06:38.729Z,945.33
2023-03-26T15:09:05.130Z,945.36
2023-03-26T15:11:32.990Z,945.38
2023-03-26T15:13:57.978Z,945.37
2023-03-26T15:16:26.233Z,945.43
2023-03-26T15:18:50.696Z,945.32
2023-03-26T15:21:17.090Z,945.36
2023-03-26T15:23:43.438Z,945.38
2023-03-26T15:26:09.821Z,945.35
2023-03-26T15:28:36.169Z,945.34
2023-03-26T15:31:02.512Z,945.36
2023-03-26T15:33:28.864Z,945.34
2023-03-26T15:35:57.377Z,945.40
2023-03-26T15:38:21.617Z,945.38
2023-03-26T15:40:48.381Z,945.39
2023-03-26T15:43:14.704Z,945.35
2023-03-26T15:45:41.175Z,945.27
2023-03-26T15:48:10.334Z,945.29
2023-03-26T15:50:33.886Z,945.32
2023-03-26T15:53:00.255Z,945.37
2023-03-26T15:55:26.609Z,945.32
2023-03-26T15:57:53.003Z,945.42
2023-03-26T16:00:19.344Z,945.37
2023-03-26T16:02:45.809Z,945.37
2023-03-26T16:05:12.173Z,945.41
2023-03-26T16:07:38.494Z,945.38
2023-03-26T16:10:07.149Z,945.38
2023-03-26T16:12:33.468Z,945.38
2023-03-26T16:14:59.825Z,945.37
2023-03-26T16:17:26.231Z,945.42
2023-03-26T16:19:52.599Z,945.37
2023-03-26T16:22:18.913Z,945.44
2023-03-26T16:24:45.315Z,945.43
2023-03-26T16:27:11.644Z,945.43
2023-03-26T16:29:38.083Z,945.53
2023-03-26T16:32:04.529Z,945.48
2023-03-26T16:34:31.092Z,945.53
2023-03-26T16:36:57.219Z,945.50
2023-03-26T16:39:23.599Z,945.53
2023-03-26T16:41:49.963Z,945.53
2023-03-26T16:44:16.310Z,945.55
2023-03-26T16:46:42.728Z,945.57
2023-03-26T16:49:09.052Z,945.62
2023-03-26T16:51:35.426Z,945.58
2023-03-26T16:54:01.862Z,945.61
2023-03-26T16:56:28.216Z,945.59
2023-03-26T16:58:54.618Z,945.59
2023-03-26T17:01:21.117Z,945.61
2023-03-26T17:03:47.582Z,945.62
2023-03-26T17:06:13.916Z,945.64
2023-03-26T17:08:40.364Z,945.61
2023-03-26T17:11:06.707Z,945.64
2023-03-26T17:13:33.145Z,945.64
2023-03-26T17:15:59.552Z,945.63
2023-03-26T17:18:25.953Z,945.60
2023-03-26T17:20:52.211Z,945.65
2023-03-26T17:23:18.621Z,945.67
2023-03-26T17:25:45.442Z,945.74
2023-03-26T17:28:11.828Z,945.65
2023-03-26T17:30:38.185Z,945.71
2023-03-26T17:33:04.639Z,945.71
2023-03-26T17:35:30.996Z,945.73
2023-03-26T17:37:57.350Z,945.72
2023-03-26T17:40:23.835Z,945.72
2023-03-26T17:42:50.205Z,945.74
2023-03-26T17:45:16.585Z,945.78
2023-03-26T17:47:43.079Z,945.71
2023-03-26T17:50:09.413Z,945.71
2023-03-26T17:52:35.741Z,945.58
2023-03-26T17:55:02.133Z,945.68
2023-03-26T17:57:28.519Z,945.67
2023-03-26T17:59:54.892Z,945.64
2023-03-26T18:02:21.377Z,945.66
2023-03-26T18:04:47.691Z,945.61
2023-03-26T18:07:14.133Z,945.65
2023-03-26T18:09:40.499Z,945.66
2023-03-26T18:12:06.889Z,945.62
2023-03-26T18:14:33.320Z,945.61
2023-03-26T18:17:00.746Z,945.61
2023-03-26T18:19:27.072Z,945.58
2023-03-26T18:21:53.424Z,945.57
2023-03-26T18:24:19.744Z,945.57
2023-03-26T18:26:46.256Z,945.58
2023-03-26T18:29:12.611Z,945.54
2023-03-26T18:31:39.004Z,945.50
2023-03-26T18:34:05.410Z,945.52
2023-03-26T18:36:31.768Z,945.49
2023-03-26T18:38:58.087Z,945.47
2023-03-26T18:41:24.641Z,945.48
2023-03-26T18:43:52.115Z,945.43
2023-03-26T18:46:18.644Z,945.43
2023-03-26T18:48:44.947Z,945.40
2023-03-26T18:51:11.340Z,945.33
2023-03-26T18:53:37.750Z,945.30
2023-03-26T18:56:04.206Z,945.28
2023-03-26T18:58:30.606Z,945.29
2023-03-26T19:00:57.194Z,945.32
2023-03-26T19:03:23.462Z,945.23
2023-03-26T19:05:49.750Z,945.17
2023-03-26T19:08:16.082Z,945.10
2023-03-26T19:10:42.486Z,945.11
2023-03-26T19:13:08.903Z,945.01
2023-03-26T19:15:35.351Z,945.00
2023-03-26T19:18:01.778Z,944.97
2023-03-26T19:20:28.222Z,945.01
2023-03-26T19:22:54.634Z,944.96
2023-03-26T19:25:21.024Z,944.98
2023-03-26T19:27:47.632Z,944.86
2023-03-26T19:30:13.977Z,944.86
2023-03-26T19:32:40.381Z,944.83
2023-03-26T19:35:06.737Z,944.84
2023-03-26T19:37:33.193Z,944.79
2023-03-26T19:40:01.084Z,944.81
2023-03-26T19:42:27.431Z,944.79
2023-03-26T19:44:53.789Z,944.77
2023-03-26T19:47:20.219Z,944.76
2023-03-26T19:49:46.584Z,944.68
2023-03-26T19:52:12.962Z,944.68
2023-03-26T19:54:39.322Z,944.64
2023-03-26T19:57:05.786Z,944.66
2023-03-26T19:59:32.178Z,944.58
2023-03-26T20:01:58.531Z,944.55
2023-03-26T20:04:24.881Z,944.54
2023-03-26T20:06:51.383Z,944.57
2023-03-26T20:09:17.845Z,944.62
2023-03-26T20:11:44.189Z,944.58
2023-03-26T20:14:10.712Z,944.61
2023-03-26T20:16:37.155Z,944.60
2023-03-26T20:19:03.411Z,944.60
2023-03-26T20:21:29.840Z,944.57
2023-03-26T20:23:56.262Z,944.48
2023-03-26T20:26:22.646Z,944.47
2023-03-26T20:28:53.226Z,944.53
2023-03-26T20:31:15.351Z,944.54
2023-03-26T20:33:41.731Z,944.54
2023-03-26T20:36:08.263Z,944.54
2023-03-26T20:38:39.525Z,944.47
2023-03-26T20:41:00.993Z,944.33
2023-03-26T20:43:27.352Z,944.37
2023-03-26T20:45:53.889Z,944.36
2023-03-26T20:48:20.011Z,944.36
2023-03-26T20:51:01.768Z,944.45
2023-03-26T20:53:12.758Z,944.43
2023-03-26T20:55:39.081Z,944.36
2023-03-26T20:58:05.483Z,944.39
2023-03-26T21:00:31.917Z,944.37
2023-03-26T21:02:58.224Z,944.32
2023-03-26T21:05:24.545Z,944.25
2023-03-26T21:07:50.853Z,944.26
2023-03-26T21:10:17.230Z,944.27
2023-03-26T21:12:43.737Z,944.25
2023-03-26T21:15:17.070Z,944.17
2023-03-26T21:17:36.478Z,944.18
2023-03-26T21:20:02.841Z,944.18
2023-03-26T21:22:29.180Z,944.21
2023-03-26T21:24:55.606Z,944.14
2023-03-26T21:27:21.980Z,944.10
2023-03-26T21:29:48.284Z,944.10
2023-03-26T21:32:14.693Z,944.11
2023-03-26T21:34:47.819Z,944.03
2023-03-26T21:37:07.436Z,943.99
2023-03-26T21:39:33.808Z,943.97
2023-03-26T21:42:04.731Z,943.88
2023-03-26T21:44:26.564Z,943.85
2023-03-26T21:46:52.909Z,943.88
2023-03-26T21:49:19.242Z,943.86
2023-03-26T21:51:45.594Z,943.75
2023-03-26T21:54:11.945Z,943.70
2023-03-26T21:56:38.373Z,943.61
2023-03-26T21:59:04.665Z,943.67
2023-03-26T22:01:31.326Z,943.66
2023-03-26T22:03:57.671Z,943.57
2023-03-26T22:06:26.435Z,943.54
2023-03-26T22:08:52.806Z,943.63
2023-03-26T22:11:19.183Z,943.71
2023-03-26T22:13:45.505Z,943.63
2023-03-26T22:16:11.950Z,943.60
2023-03-26T22:18:38.286Z,943.43
2023-03-26T22:21:04.735Z,943.48
2023-03-26T22:23:31.067Z,943.43
2023-03-26T22:25:57.425Z,943.38
2023-03-26T22:28:23.759Z,943.27
2023-03-26T22:30:50.138Z,943.20
2023-03-26T22:33:16.500Z,943.20
2023-03-26T22:35:42.954Z,943.09
2023-03-26T22:38:09.213Z,943.06
2023-03-26T22:40:35.538Z,943.13
2023-03-26T22:43:01.880Z,943.28
2023-03-26T22:45:28.204Z,943.17
2023-03-26T22:48:03.062Z,943.17
2023-03-26T22:50:20.993Z,943.03
2023-03-26T22:52:47.332Z,943.03
2023-03-26T22:55:13.649Z,942.94
2023-03-26T22:57:40.020Z,942.97
2023-03-26T23:00:06.343Z,942.92
2023-03-26T23:02:32.754Z,942.83
2023-03-26T23:04:59.052Z,942.81
2023-03-26T23:07:25.606Z,942.79
2023-03-26T23:09:52.057Z,942.84
2023-03-26T23:12:18.415Z,942.77
2023-03-26T23:14:44.754Z,942.75
2023-03-26T23:17:11.236Z,942.66
2023-03-26T23:19:37.592Z,942.69
2023-03-26T23:22:04.024Z,942.71
2023-03-26T23:24:30.468Z,942.66
2023-03-26T23:26:56.852Z,942.59
2023-03-26T23:29:23.284Z,942.57
2023-03-26T23:31:49.894Z,942.69
2023-03-26T23:34:16.222Z,942.60
2023-03-26T23:36:42.561Z,942.53
2023-03-26T23:39:08.950Z,942.50
2023-03-26T23:41:35.323Z,942.47
2023-03-26T23:44:01.673Z,942.40
2023-03-26T23:46:28.183Z,942.32
2023-03-26T23:48:54.510Z,942.53
2023-03-26T23:51:20.854Z,942.43
2023-03-26T23:53:47.411Z,942.28
2023-03-26T23:56:13.720Z,942.26
2023-03-26T23:58:40.065Z,942.24
